RU-0432 weather

CLOSED Karachayevsk Airfield
Karachayevsk, Karachay-Cherkess Republic, Russia

Public forecast

Using degrees Celsius for public forecast. Weather courtesy of forecast.io.

METAR (pilot weather report)

Closest report is Mineralnyye Vody Airport, 56.9 nm (105.4 km) ENE. Retrieved 2019/08/24 07:30 UTC (25 minutes ago):

URMM 240730Z 32003MPS 9999 NSC 30/11 Q1013 R30/090070 NOSIG RMK QFE732/0976

TAF (pilot weather forecast)

Closest forecast is Mineralnyye Vody Airport, 56.9 nm (105.4 km) ENE. Retrieved 2019/08/24 09:24 UTC (0 seconds ago):

TAF URMM 240800Z 2409/2509 29003G08MPS 9999 SCT030 TX33/2412Z TN18/2503Z TEMPO 2409/2414 31005G12MPS TEMPO 2414/2509 VRB06G14MPS 5000 -TSRAGR BKN015 BKN030CB